Home > Products > Valid Products > MTR

000
SAUS44 KEWX 291852
MTRATT
METAR KATT 291851Z AUTO VRB05KT 10SM CLR 33/17 A3004 RMK AO2 SLP155
T03330172





000
SAUS44 KEWX 291753
MTRATT
METAR KATT 291751Z AUTO 00000KT 10SM CLR 32/17 A3006 RMK AO2 SLP163
T03220172 10328 20217 58007





000
SAUS44 KEWX 291652
MTRATT
METAR KATT 291651Z AUTO 00000KT 10SM CLR 31/18 A3007 RMK AO2 SLP169
T03060183





000
SAUS44 KEWX 291552
MTRATT
METAR KATT 291551Z AUTO 20007KT 160V240 10SM CLR 29/18 A3008 RMK AO2
SLP171 T02940183





000
SAUS44 KEWX 291453
MTRATT
METAR KATT 291451Z AUTO VRB03KT 10SM CLR 27/18 A3008 RMK AO2 SLP171
T02720183 51014





000
SAUS44 KEWX 291453
MTRATT
METAR KATT 291451Z AUTO VRB03KT 10SM CLR 27/18 A3008 RMK AO2 SLP171
T02720183 51014





000
SAUS44 KEWX 291353
MTRATT
METAR KATT 291351Z AUTO 00000KT 10SM CLR 25/18 A3006 RMK AO2 SLP167
T02500183





000
SAUS44 KEWX 291353
MTRATT
METAR KATT 291351Z AUTO 00000KT 10SM CLR 25/18 A3006 RMK AO2 SLP167
T02500183





000
SAUS44 KEWX 291252
MTRATT
METAR KATT 291251Z AUTO 00000KT 10SM CLR 22/18 A3005 RMK AO2 SLP163
T02220183





000
SAUS44 KEWX 291152
MTRATT
METAR KATT 291151Z AUTO 00000KT 10SM CLR 22/18 A3004 RMK AO2 SLP157
T02170178 10261 20217 53004





000
SAUS44 KEWX 291152
MTRATT
METAR KATT 291151Z AUTO 00000KT 10SM CLR 22/18 A3004 RMK AO2 SLP157
T02170178 10261 20217 53004





000
SAUS44 KEWX 291053
MTRATT
METAR KATT 291051Z AUTO 00000KT 10SM CLR 22/18 A3003 RMK AO2 SLP154
T02220178





000
SAUS44 KEWX 291053
MTRATT
METAR KATT 291051Z AUTO 00000KT 10SM CLR 22/18 A3003 RMK AO2 SLP154
T02220178





000
SAUS44 KEWX 290952
MTRATT
METAR KATT 290951Z AUTO 00000KT 10SM CLR 23/18 A3002 RMK AO2 SLP151
T02280178





000
SAUS44 KEWX 290852
MTRATT
METAR KATT 290851Z AUTO VRB03KT 10SM CLR 23/18 A3002 RMK AO2 SLP151
T02330178 52001





000
SAUS44 KEWX 290753
MTRATT
METAR KATT 290751Z AUTO VRB04KT 10SM CLR 24/18 A3002 RMK AO2 SLP150
T02440183





000
SAUS44 KEWX 290652
MTRATT
METAR KATT 290651Z AUTO 19004KT 10SM CLR 25/18 A3002 RMK AO2 SLP151
T02500183





000
SAUS44 KEWX 290553
MTRATT
METAR KATT 290551Z AUTO VRB06KT 10SM CLR 26/18 A3002 RMK AO2 SLP150
T02610183 10333 20261 403670222 51012





000
SAUS44 KEWX 290553
MTRATT
METAR KATT 290551Z AUTO VRB06KT 10SM CLR 26/18 A3002 RMK AO2 SLP150
T02610183 10333 20261 403670222 51012





000
SAUS44 KEWX 290452
MTRATT
METAR KATT 290451Z AUTO VRB04KT 10SM CLR 27/18 A3002 RMK AO2 SLP149
T02720183





000
SAUS44 KEWX 290352
MTRATT
METAR KATT 290351Z AUTO VRB04G16KT 10SM CLR 28/17 A3001 RMK AO2
SLP146 T02830172





000
SAUS44 KEWX 290252
MTRATT
METAR KATT 290251Z AUTO 15007KT 10SM CLR 29/16 A2998 RMK AO2 SLP139
T02940161 53018





000
SAUS44 KEWX 290152
MTRATT
METAR KATT 290151Z AUTO 16005KT 10SM CLR 31/16 A2996 RMK AO2 SLP130
T03060156 $





000
SAUS44 KEWX 290053
MTRATT
METAR KATT 290051Z AUTO 16007KT 10SM CLR 32/15 A2994 RMK AO2 SLP123
T03220150





000
SAUS44 KEWX 290053
MTRATT
METAR KATT 290051Z AUTO 16007KT 10SM CLR 32/15 A2994 RMK AO2 SLP123
T03220150





000
SAUS44 KEWX 282353
MTRATT
METAR KATT 282351Z AUTO 12006KT 10SM CLR 33/14 A2993 RMK AO2 SLP121
T03330139 10367 20333 56007





000
SAUS44 KEWX 282353
MTRATT
METAR KATT 282351Z AUTO 12006KT 10SM CLR 33/14 A2993 RMK AO2 SLP121
T03330139 10367 20333 56007





000
SAUS44 KEWX 282252
MTRATT
METAR KATT 282251Z AUTO 12009KT 10SM CLR 35/14 A2993 RMK AO2 SLP120
T03500139





000
SAUS44 KEWX 282252
MTRATT
METAR KATT 282251Z AUTO 12009KT 10SM CLR 35/14 A2993 RMK AO2 SLP120
T03500139





000
SAUS44 KEWX 282152
MTRATT
METAR KATT 282151Z AUTO VRB05KT 10SM CLR 36/14 A2994 RMK AO2 SLP122
T03610139





000
SAUS44 KEWX 282052
MTRATT
METAR KATT 282051Z AUTO 15007KT 10SM CLR 36/14 A2995 RMK AO2 SLP127
T03610139 56023





000
SAUS44 KEWX 282052
MTRATT
METAR KATT 282051Z AUTO 15007KT 10SM CLR 36/14 A2995 RMK AO2 SLP127
T03610139 56023





000
SAUS44 KEWX 281953
MTRATT
METAR KATT 281951Z AUTO VRB05KT 10SM CLR 36/14 A2998 RMK AO2 SLP135
T03560144





000
SAUS44 KEWX 281853
MTRATT
METAR KATT 281851Z AUTO 15007KT 120V180 10SM CLR 34/14 A3000 RMK AO2
SLP142 T03440144





000
SAUS44 KEWX 281853
MTRATT
METAR KATT 281851Z AUTO 15007KT 120V180 10SM CLR 34/14 A3000 RMK AO2
SLP142 T03440144





000
SAUS44 KEWX 281753
MTRATT
METAR KATT 281751Z AUTO 10SM CLR 34/15 A3002 RMK AO2 SLP151
T03390150 10344 20222 58003





000
SAUS44 KEWX 281653
MTRATT
METAR KATT 281651Z AUTO 17005KT 10SM CLR 33/15 A3003 RMK AO2 SLP155
T03280150





000
SAUS44 KEWX 281555
MTRATT
METAR KATT 281551Z AUTO 00000KT 10SM CLR 31/16 A3004 RMK AO2 SLP156
T03060156





000
SAUS44 KEWX 281452
MTRATT
METAR KATT 281451Z AUTO VRB05KT 10SM CLR 28/16 A3003 RMK AO2 SLP155
T02830156 51009





000
SAUS44 KEWX 281452
MTRATT
METAR KATT 281451Z AUTO VRB05KT 10SM CLR 28/16 A3003 RMK AO2 SLP155
T02830156 51009





000
SAUS44 KEWX 281353
MTRATT
METAR KATT 281351Z AUTO 25003KT 10SM CLR 26/17 A3003 RMK AO2 SLP154
T02560167





000
SAUS44 KEWX 281252
MTRATT
METAR KATT 281251Z AUTO 00000KT 10SM CLR 24/17 A3002 RMK AO2 SLP152
T02390167





000
SAUS44 KEWX 281152
MTRATT
METAR KATT 281151Z AUTO 00000KT 10SM CLR 22/17 A3000 RMK AO2 SLP146
T02220167 10256 20222 53004





000
SAUS44 KEWX 281152
MTRATT
METAR KATT 281151Z AUTO 00000KT 10SM CLR 22/17 A3000 RMK AO2 SLP146
T02220167 10256 20222 53004





000
SAUS44 KEWX 281052
MTRATT
METAR KATT 281051Z AUTO 00000KT 10SM CLR 23/17 A2999 RMK AO2 SLP141
T02330167





000
SAUS44 KEWX 280952
MTRATT
METAR KATT 280951Z AUTO 00000KT 10SM CLR 23/17 A2999 RMK AO2 SLP140
T02330167





000
SAUS44 KEWX 280852
MTRATT
METAR KATT 280851Z AUTO 00000KT 10SM CLR 23/16 A2999 RMK AO2 SLP140
T02330161 56012





000
SAUS44 KEWX 280752
MTRATT
METAR KATT 280751Z AUTO 21003KT 10SM CLR 24/16 A3000 RMK AO2 SLP143
T02390156





000
SAUS44 KEWX 280653
MTRATT
METAR KATT 280651Z AUTO 00000KT 10SM CLR 24/15 A3002 RMK AO2 SLP149
T02440150





000
SAUS44 KEWX 280653
MTRATT
METAR KATT 280651Z AUTO 00000KT 10SM CLR 24/15 A3002 RMK AO2 SLP149
T02440150





000
SAUS44 KEWX 280552
MTRATT
METAR KATT 280551Z AUTO 20003KT 10SM CLR 26/16 A3003 RMK AO2 SLP152
T02560156 10339 20256 403670233 50003





000
SAUS44 KEWX 280453
MTRATT
METAR KATT 280451Z AUTO 18003KT 10SM CLR 26/16 A3003 RMK AO2 SLP153
T02610156





000
SAUS44 KEWX 280453
MTRATT
METAR KATT 280451Z AUTO 18003KT 10SM CLR 26/16 A3003 RMK AO2 SLP153
T02610156





000
SAUS44 KEWX 280352
MTRATT
METAR KATT 280351Z AUTO VRB03KT 10SM CLR 28/16 A3003 RMK AO2 SLP152
T02780156





000
SAUS44 KEWX 280252
MTRATT
METAR KATT 280251Z AUTO 15007KT 10SM CLR 29/15 A3002 RMK AO2 SLP150
T02890150 53013





000
SAUS44 KEWX 280252
MTRATT
METAR KATT 280251Z AUTO 15007KT 10SM CLR 29/15 A3002 RMK AO2 SLP150
T02890150 53013





000
SAUS44 KEWX 280152
MTRATT
METAR KATT 280151Z AUTO VRB06KT 10SM CLR 30/14 A3000 RMK AO2 SLP143
T03000144





000
SAUS44 KEWX 280152
MTRATT
METAR KATT 280151Z AUTO VRB06KT 10SM CLR 30/14 A3000 RMK AO2 SLP143
T03000144





000
SAUS44 KEWX 280052
MTRATT
METAR KATT 280051Z AUTO 12004KT 10SM CLR 33/14 A2998 RMK AO2 SLP136
T03280139





000
SAUS44 KEWX 280052
MTRATT
METAR KATT 280051Z AUTO 12004KT 10SM CLR 33/14 A2998 RMK AO2 SLP136
T03280139





000
SAUS44 KEWX 272353
MTRATT
METAR KATT 272351Z AUTO 12005KT 10SM CLR 34/14 A2998 RMK AO2 SLP137
T03390139 10367 20333 56012





000
SAUS44 KEWX 272353
MTRATT
METAR KATT 272351Z AUTO 12005KT 10SM CLR 34/14 A2998 RMK AO2 SLP137
T03390139 10367 20333 56012





000
SAUS44 KEWX 272256 COR
MTRATT
METAR KATT 272251Z AUTO 15005KT 10SM CLR 36/14 A2999 RMK AO2 SLP140
T03560144





000
SAUS44 KEWX 272254 COR
MTRATT
METAR KATT 272251Z AUTO 15005KT 10SM CLR 36/14 A2999 RMK AO2 SLP140
T03560144





000
SAUS44 KEWX 272253 COR
MTRATT
METAR KATT 272251Z AUTO 15005KT 10SM CLR 36/14 A2999 RMK AO2 SLP140
T03560144





000
SAUS44 KEWX 272252
MTRATT
METAR KATT 272251Z AUTO 15005KT 10SM CLR 36/14 A2999 RMK AO2 SLP140
T03560144





000
SAUS44 KEWX 272152
MTRATT
METAR KATT 272151Z AUTO VRB04KT 10SM CLR 36/13 A2999 RMK AO2 SLP140
T03610133





000
SAUS44 KEWX 272052
MTRATT
METAR KATT 272051Z AUTO VRB04KT 10SM CLR 36/14 A3001 RMK AO2 SLP147
T03560139 58023





000
SAUS44 KEWX 271953
MTRATT
METAR KATT 271951Z AUTO 15006KT 10SM CLR 37/17 A3003 RMK AO2 SLP154
T03670167





000
SAUS44 KEWX 271852
MTRATT
METAR KATT 271851Z AUTO VRB03KT 10SM CLR 35/16 A3006 RMK AO2 SLP163
T03500161





000
SAUS44 KEWX 271852
MTRATT
METAR KATT 271851Z AUTO VRB03KT 10SM CLR 35/16 A3006 RMK AO2 SLP163
T03500161





000
SAUS44 KEWX 271753
MTRATT
METAR KATT 271751Z AUTO VRB04KT 10SM CLR 34/18 A3008 RMK AO2 SLP170
T03390183 10339 20233 58011





000
SAUS44 KEWX 271753
MTRATT
METAR KATT 271751Z AUTO VRB04KT 10SM CLR 34/18 A3008 RMK AO2 SLP170
T03390183 10339 20233 58011





000
SAUS44 KEWX 271652
MTRATT
METAR KATT 271651Z AUTO 00000KT 10SM CLR 32/19 A3010 RMK AO2 SLP178
T03220189





000
SAUS44 KEWX 271552
MTRATT
METAR KATT 271551Z AUTO VRB03KT 10SM CLR 31/21 A3011 RMK AO2 SLP181
T03060211





000
SAUS44 KEWX 271452
MTRATT
METAR KATT 271451Z AUTO 00000KT 10SM CLR 28/22 A3011 RMK AO2 SLP183
T02780222 51009





000
SAUS44 KEWX 271452
MTRATT
METAR KATT 271451Z AUTO 00000KT 10SM CLR 28/22 A3011 RMK AO2 SLP183
T02780222 51009





000
SAUS44 KEWX 271352
MTRATT
METAR KATT 271351Z AUTO 00000KT 10SM CLR 27/22 A3011 RMK AO2 SLP183
T02670217





000
SAUS44 KEWX 271352
MTRATT
METAR KATT 271351Z AUTO 00000KT 10SM CLR 27/22 A3011 RMK AO2 SLP183
T02670217





000
SAUS44 KEWX 271252
MTRATT
METAR KATT 271251Z AUTO 00000KT 10SM CLR 24/22 A3010 RMK AO2 SLP179
T02440217





000
SAUS44 KEWX 271252
MTRATT
METAR KATT 271251Z AUTO 00000KT 10SM CLR 24/22 A3010 RMK AO2 SLP179
T02440217





000
SAUS44 KEWX 271153
MTRATT
METAR KATT 271151Z AUTO 00000KT 10SM CLR 24/21 A3009 RMK AO2 SLP174
T02390211 10272 20239 52006





000
SAUS44 KEWX 271153
MTRATT
METAR KATT 271151Z AUTO 00000KT 10SM CLR 24/21 A3009 RMK AO2 SLP174
T02390211 10272 20239 52006





000
SAUS44 KEWX 271052
MTRATT
METAR KATT 271051Z AUTO 29003KT 10SM CLR 24/21 A3008 RMK AO2 SLP171
T02440211





000
SAUS44 KEWX 271052
MTRATT
METAR KATT 271051Z AUTO 29003KT 10SM CLR 24/21 A3008 RMK AO2 SLP171
T02440211





000
SAUS44 KEWX 270952
MTRATT
METAR KATT 270951Z AUTO 00000KT 10SM CLR 24/21 A3007 RMK AO2 SLP169
T02440206





000
SAUS44 KEWX 270853
MTRATT
METAR KATT 270851Z AUTO 22003KT 10SM CLR 25/21 A3007 RMK AO2 SLP166
T02500206 56006





000
SAUS44 KEWX 270853
MTRATT
METAR KATT 270851Z AUTO 22003KT 10SM CLR 25/21 A3007 RMK AO2 SLP166
T02500206 56006





000
SAUS44 KEWX 270752
MTRATT
METAR KATT 270751Z AUTO 17004KT 10SM CLR 25/21 A3007 RMK AO2 SLP167
T02500206





000
SAUS44 KEWX 270652
MTRATT
METAR KATT 270651Z AUTO VRB03KT 10SM CLR 26/20 A3008 RMK AO2 SLP169
T02610200





000
SAUS44 KEWX 270652
MTRATT
METAR KATT 270651Z AUTO VRB03KT 10SM CLR 26/20 A3008 RMK AO2 SLP169
T02610200





000
SAUS44 KEWX 270555 COR
MTRATT
METAR KATT 270551Z AUTO VRB04KT 10SM CLR 27/19 A3009 RMK AO2 SLP172
T02720194 10339 20272 403670228 50003





000
SAUS44 KEWX 270555 COR
MTRATT
METAR KATT 270551Z AUTO VRB04KT 10SM CLR 27/19 A3009 RMK AO2 SLP172
T02720194 10339 20272 403670228 50003





000
SAUS44 KEWX 270554 COR
MTRATT
METAR KATT 270551Z AUTO VRB04KT 10SM CLR 27/19 A3009 RMK AO2 SLP172
T02720194 10339 20272 403670228 50003





000
SAUS44 KEWX 270554 COR
MTRATT
METAR KATT 270551Z AUTO VRB04KT 10SM CLR 27/19 A3009 RMK AO2 SLP172
T02720194 10339 20272 403670228 50003





000
SAUS44 KEWX 270553 COR
MTRATT
METAR KATT 270551Z AUTO VRB04KT 10SM CLR 27/19 A3009 RMK AO2 SLP172
T02720194 10339 20272 403670228 50003





000
SAUS44 KEWX 270552
MTRATT
METAR KATT 270551Z AUTO VRB04KT 10SM CLR 27/19 A3009 RMK AO2 SLP172
T02720194 10339 20272 403670228 50003





000
SAUS44 KEWX 270453
MTRATT
METAR KATT 270451Z AUTO 00000KT 10SM CLR 28/19 A3009 RMK AO2 SLP173
T02780194





000
SAUS44 KEWX 270353
MTRATT
METAR KATT 270351Z AUTO 17004KT 10SM CLR 29/19 A3009 RMK AO2 SLP173
T02890194





000
SAUS44 KEWX 270252
MTRATT
METAR KATT 270251Z AUTO 13004KT 10SM CLR 30/19 A3008 RMK AO2 SLP169
T03000194 53015





000
SAUS44 KEWX 270156 COR
MTRATT
METAR KATT 270151Z AUTO 12004KT 10SM CLR 31/18 A3005 RMK AO2 SLP162
T03110178





000
SAUS44 KEWX 270154 COR
MTRATT
METAR KATT 270151Z AUTO 12004KT 10SM CLR 31/18 A3005 RMK AO2 SLP162
T03110178





000
SAUS44 KEWX 270153 COR
MTRATT
METAR KATT 270151Z AUTO 12004KT 10SM CLR 31/18 A3005 RMK AO2 SLP162
T03110178





000
SAUS44 KEWX 270152
MTRATT
METAR KATT 270151Z AUTO 12004KT 10SM CLR 31/18 A3005 RMK AO2 SLP162
T03110178





000
SAUS44 KEWX 270053
MTRATT
METAR KATT 270051Z AUTO 12005KT 10SM CLR 33/18 A3003 RMK AO2 SLP156
T03280183





000
SAUS44 KEWX 262352
MTRATT
METAR KATT 262351Z AUTO 10004KT 10SM CLR 34/18 A3003 RMK AO2 SLP155
T03390183 10367 20322 56013





000
SAUS44 KEWX 262352
MTRATT
METAR KATT 262351Z AUTO 10004KT 10SM CLR 34/18 A3003 RMK AO2 SLP155
T03390183 10367 20322 56013





000
SAUS44 KEWX 262252
MTRATT
METAR KATT 262251Z AUTO 05004KT 10SM CLR 35/18 A3004 RMK AO2 SLP156
T03500183





000
SAUS44 KEWX 262152
MTRATT
METAR KATT 262151Z AUTO 00000KT 10SM SCT060 35/18 A3005 RMK AO2
SLP161 T03500183





000
SAUS44 KEWX 262152
MTRATT
METAR KATT 262151Z AUTO 00000KT 10SM SCT060 35/18 A3005 RMK AO2
SLP161 T03500183





000
SAUS44 KEWX 262052
MTRATT
METAR KATT 262051Z AUTO VRB03KT 10SM SCT060 35/19 A3007 RMK AO2
SLP167 T03500194 58024





000
SAUS44 KEWX 261953
MTRATT
METAR KATT 261951Z AUTO VRB05KT 10SM SCT050 BKN065 BKN080 33/20
A3010 RMK AO2 SLP178 T03330200





    US Dept of Commerce
    National Oceanic and Atmospheric Administration
    National Weather Service
    1325 East West Highway
    Silver Spring, MD 20910
    Page Author: NWS Internet Services Team
Disclaimer
Information Quality
Credits
Glossary
Privacy Policy
Freedom of Information Act (FOIA)
About Us
Career Opportunities